Time;durP1;ratioP1;P1;durP2;ratioP2;P2;SDS_P1;SDS_P2;PMS_P1;PMS_P2;Temp;Humidity;BMP_temperature;BMP_pressure;BME280_temperature;BME280_humidity;BME280_pressure;Samples;Min_cycle;Max_cycle;Signal;HPM_P1;HPM_P2
2022/10/26 00:02:07;;;;;;;14.55;5.28;;;;;;;;;;6282015;22;20066;-93
2022/10/26 00:07:24;;;;;;;20.65;7.30;;;;;;;;;;6309180;22;20014;-92
2022/10/26 00:09:50;;;;;;;20.08;8.20;;;;;;;;;;6281432;22;20021;-91
2022/10/26 00:12:16;;;;;;;17.65;7.28;;;;;;;;;;6281469;22;20102;-92
2022/10/26 00:14:42;;;;;;;21.88;7.60;;;;;;;;;;6281973;22;20083;-92
2022/10/26 00:17:08;;;;;;;24.15;7.70;;;;;;;;;;6281246;22;20317;-92
2022/10/26 00:19:36;;;;;;;17.58;8.05;;;;;;;;;;6282004;22;20038;-92
2022/10/26 00:22:03;;;;;;;20.90;7.47;;;;;;;;;;6281683;22;20011;-92
2022/10/26 00:24:29;;;;;;;20.42;6.30;;;;;;;;;;6281756;22;20428;-92
2022/10/26 00:26:55;;;;;;;42.42;14.63;;;;;;;;;;6281888;22;20069;-92
2022/10/26 00:29:21;;;;;;;39.85;12.23;;;;;;;;;;6281547;22;20007;-92
2022/10/26 00:31:47;;;;;;;31.73;12.23;;;;;;;;;;6282759;22;20003;-92
2022/10/26 00:34:16;;;;;;;26.10;10.50;;;;;;;;;;6283584;22;20007;-91
2022/10/26 00:36:42;;;;;;;24.08;9.13;;;;;;;;;;6283505;22;20061;-92
2022/10/26 00:39:10;;;;;;;18.88;6.97;;;;;;;;;;6283425;22;20003;-91
2022/10/26 00:41:36;;;;;;;14.32;5.57;;;;;;;;;;6283662;22;20007;-92
2022/10/26 00:44:22;;;;;;;20.35;5.35;;;;;;;;;;6283565;22;20029;-91
2022/10/26 00:46:48;;;;;;;16.17;5.07;;;;;;;;;;6283475;22;20419;-91
2022/10/26 00:49:19;;;;;;;11.48;5.10;;;;;;;;;;6283414;22;20086;-91
2022/10/26 00:51:48;;;;;;;15.75;5.18;;;;;;;;;;6295761;22;20071;-91
2022/10/26 00:54:18;;;;;;;10.13;4.20;;;;;;;;;;6284229;22;19999;-91
2022/10/26 00:56:49;;;;;;;6.20;3.25;;;;;;;;;;6283765;22;20072;-91
2022/10/26 00:59:17;;;;;;;12.88;4.35;;;;;;;;;;6284321;22;20027;-90
2022/10/26 01:01:44;;;;;;;11.23;4.38;;;;;;;;;;6282783;22;20010;-91
2022/10/26 01:04:12;;;;;;;13.13;3.78;;;;;;;;;;6283696;22;20015;-92
2022/10/26 01:06:38;;;;;;;13.13;4.57;;;;;;;;;;6283384;22;20004;-91
2022/10/26 01:09:05;;;;;;;12.10;4.70;;;;;;;;;;6283448;22;20007;-91
2022/10/26 01:11:34;;;;;;;11.00;3.80;;;;;;;;;;6283227;22;20006;-92
2022/10/26 01:14:01;;;;;;;9.18;4.03;;;;;;;;;;6283916;22;20433;-92
2022/10/26 01:16:34;;;;;;;8.55;3.65;;;;;;;;;;6282969;22;20027;-93
2022/10/26 01:19:21;;;;;;;9.40;3.83;;;;;;;;;;6282959;22;20014;-91
2022/10/26 01:22:23;;;;;;;10.52;2.97;;;;;;;;;;6282686;22;20030;-92
2022/10/26 01:24:49;;;;;;;10.32;2.83;;;;;;;;;;6131810;23;20113;-91
2022/10/26 01:27:34;;;;;;;8.40;3.25;;;;;;;;;;6131361;23;20017;-92
2022/10/26 01:30:11;;;;;;;8.90;2.63;;;;;;;;;;6131499;23;20044;-90
2022/10/26 01:38:47;;;;;;;7.57;2.05;;;;;;;;;;6187768;22;20094;-91
2022/10/26 01:41:31;;;;;;;3.88;1.83;;;;;;;;;;6282782;22;20014;-92
2022/10/26 01:44:03;;;;;;;10.73;3.00;;;;;;;;;;6282636;22;20498;-91
2022/10/26 01:46:31;;;;;;;4.80;2.03;;;;;;;;;;6283057;22;20023;-92
2022/10/26 01:48:59;;;;;;;4.53;2.05;;;;;;;;;;6282835;22;20018;-92
2022/10/26 01:51:26;;;;;;;3.50;2.20;;;;;;;;;;6282814;22;20052;-91
2022/10/26 01:53:52;;;;;;;6.30;2.38;;;;;;;;;;6282646;22;20007;-92
2022/10/26 01:56:23;;;;;;;6.90;3.13;;;;;;;;;;6282642;22;20336;-92
2022/10/26 01:58:56;;;;;;;6.15;2.80;;;;;;;;;;6282579;22;20488;-92
2022/10/26 02:01:22;;;;;;;7.07;2.83;;;;;;;;;;6282844;22;20014;-92
2022/10/26 02:04:06;;;;;;;6.70;2.70;;;;;;;;;;6282674;22;20035;-90
2022/10/26 02:06:32;;;;;;;;;;;;;;;;;;6282842;22;20010;-93
2022/10/26 02:09:01;;;;;;;4.35;1.95;;;;;;;;;;6282253;22;19899;-92
2022/10/26 02:11:39;;;;;;;4.07;1.83;;;;;;;;;;6282872;22;20062;-92
2022/10/26 02:14:05;;;;;;;5.63;1.77;;;;;;;;;;6282614;22;20026;-92
2022/10/26 02:16:37;;;;;;;4.30;1.60;;;;;;;;;;6282874;22;20006;-92
2022/10/26 02:19:22;;;;;;;5.88;1.63;;;;;;;;;;6282722;22;20007;-93
2022/10/26 02:21:49;;;;;;;4.40;1.40;;;;;;;;;;6282264;22;20331;-92
2022/10/26 02:24:19;;;;;;;3.72;1.35;;;;;;;;;;6282387;22;20057;-92
2022/10/26 02:26:47;;;;;;;4.63;1.48;;;;;;;;;;6282163;22;20031;-91
2022/10/26 02:29:15;;;;;;;2.75;1.23;;;;;;;;;;6282703;22;20026;-91
2022/10/26 02:31:43;;;;;;;3.30;1.60;;;;;;;;;;6282796;22;20392;-92
2022/10/26 02:34:11;;;;;;;3.85;1.30;;;;;;;;;;6287887;22;20014;-91
2022/10/26 02:36:41;;;;;;;2.97;1.45;;;;;;;;;;6287539;22;20025;-92
2022/10/26 02:39:08;;;;;;;3.42;1.40;;;;;;;;;;6282724;22;20007;-91
2022/10/26 02:41:34;;;;;;;3.25;1.40;;;;;;;;;;6282584;22;20003;-91
2022/10/26 02:44:05;;;;;;;5.60;2.08;;;;;;;;;;6282327;22;20110;-92
2022/10/26 02:46:32;;;;;;;4.38;1.45;;;;;;;;;;6282093;22;20007;-91
2022/10/26 02:48:58;;;;;;;3.97;1.67;;;;;;;;;;6281661;22;19999;-92
2022/10/26 02:51:39;;;;;;;5.85;1.73;;;;;;;;;;6282400;22;20080;-92
2022/10/26 02:54:13;;;;;;;3.90;2.10;;;;;;;;;;6281781;22;19999;-92
2022/10/26 02:56:48;;;;;;;3.35;1.83;;;;;;;;;;6281883;22;19999;-92
2022/10/26 02:59:18;;;;;;;5.22;1.83;;;;;;;;;;6282351;22;20554;-92
2022/10/26 03:01:45;;;;;;;4.45;2.05;;;;;;;;;;6281889;22;20011;-92
2022/10/26 03:04:11;;;;;;;5.20;1.95;;;;;;;;;;6282284;22;20327;-91
2022/10/26 03:06:40;;;;;;;6.03;2.50;;;;;;;;;;6282107;22;20008;-90
2022/10/26 03:09:06;;;;;;;6.78;2.55;;;;;;;;;;6282001;22;20016;-90
2022/10/26 03:11:32;;;;;;;5.75;2.60;;;;;;;;;;6281957;22;20412;-92
2022/10/26 03:13:58;;;;;;;9.13;2.80;;;;;;;;;;6282633;22;20046;-91
2022/10/26 03:16:24;;;;;;;16.65;3.63;;;;;;;;;;6282071;22;20080;-91
2022/10/26 03:18:50;;;;;;;14.32;6.20;;;;;;;;;;6281845;22;20010;-91
2022/10/26 03:21:16;;;;;;;19.88;9.80;;;;;;;;;;6281845;22;20003;-90
2022/10/26 03:23:43;;;;;;;20.45;6.88;;;;;;;;;;6281699;22;20474;-91
2022/10/26 03:26:11;;;;;;;16.02;5.35;;;;;;;;;;6281836;22;20013;-92
2022/10/26 03:28:37;;;;;;;11.40;5.15;;;;;;;;;;6280683;22;20027;-92
2022/10/26 03:31:03;;;;;;;13.40;5.40;;;;;;;;;;6281423;22;20084;-93
2022/10/26 03:33:29;;;;;;;10.77;5.25;;;;;;;;;;6282250;22;20076;-92
2022/10/26 03:35:56;;;;;;;13.10;5.70;;;;;;;;;;6282071;22;20425;-92
2022/10/26 03:38:22;;;;;;;13.93;5.20;;;;;;;;;;6282115;22;20014;-91
2022/10/26 03:40:54;;;;;;;7.68;3.40;;;;;;;;;;6281347;22;20005;-92
2022/10/26 03:43:23;;;;;;;7.00;3.50;;;;;;;;;;6281888;22;20011;-92
2022/10/26 03:45:49;;;;;;;5.03;2.60;;;;;;;;;;6281636;22;20026;-91
2022/10/26 03:48:22;;;;;;;4.28;2.25;;;;;;;;;;6281513;22;20014;-92
2022/10/26 03:50:48;;;;;;;4.82;2.35;;;;;;;;;;6281272;22;20003;-91
2022/10/26 03:53:14;;;;;;;3.22;1.48;;;;;;;;;;6281899;22;20090;-92
2022/10/26 03:55:43;;;;;;;3.53;1.65;;;;;;;;;;6281706;22;20007;-92
2022/10/26 03:58:09;;;;;;;3.35;1.50;;;;;;;;;;6281276;22;20007;-91
2022/10/26 04:00:43;;;;;;;3.42;1.42;;;;;;;;;;6281429;22;20006;-89
2022/10/26 04:03:09;;;;;;;2.85;1.55;;;;;;;;;;6281388;22;20084;-91
2022/10/26 04:05:35;;;;;;;2.13;0.98;;;;;;;;;;6282103;22;19995;-90
2022/10/26 04:08:02;;;;;;;6.80;1.50;;;;;;;;;;6266461;22;20007;-91
2022/10/26 04:10:28;;;;;;;6.50;1.65;;;;;;;;;;6278616;22;20495;-91
2022/10/26 04:12:55;;;;;;;5.82;1.58;;;;;;;;;;6283102;22;20031;-92
2022/10/26 04:15:21;;;;;;;8.15;1.85;;;;;;;;;;6283734;22;19999;-90
2022/10/26 04:17:47;;;;;;;4.10;1.85;;;;;;;;;;6286673;22;20007;-89
2022/10/26 04:20:14;;;;;;;5.90;1.83;;;;;;;;;;6315673;22;20079;-91
2022/10/26 04:22:42;;;;;;;3.92;1.40;;;;;;;;;;6283054;22;20415;-90
2022/10/26 04:25:10;;;;;;;2.85;1.55;;;;;;;;;;6283567;22;20006;-92
2022/10/26 04:27:36;;;;;;;9.27;2.30;;;;;;;;;;6282968;22;20019;-93
2022/10/26 04:30:02;;;;;;;4.97;2.67;;;;;;;;;;6283496;22;20010;-92
2022/10/26 04:32:31;;;;;;;4.97;2.30;;;;;;;;;;6283567;22;20416;-93
2022/10/26 04:34:57;;;;;;;8.15;2.42;;;;;;;;;;6283456;22;20003;-90
2022/10/26 04:37:23;;;;;;;9.68;3.25;;;;;;;;;;6283283;22;20007;-92
2022/10/26 04:39:55;;;;;;;4.32;2.53;;;;;;;;;;6283007;22;20315;-92
2022/10/26 07:10:13;;;;;;;13.82;5.82;;;;;;;;;;6269552;22;20027;-91
2022/10/26 07:12:40;;;;;;;22.33;8.32;;;;;;;;;;6307426;22;20039;-92
2022/10/26 07:15:07;;;;;;;14.75;7.70;;;;;;;;;;6307773;22;20003;-92
2022/10/26 07:17:43;;;;;;;20.17;8.35;;;;;;;;;;6308236;22;20004;-92
2022/10/26 07:20:10;;;;;;;20.48;7.30;;;;;;;;;;6308063;22;20014;-91
2022/10/26 07:22:36;;;;;;;25.92;8.63;;;;;;;;;;6307401;22;20026;-92
2022/10/26 07:25:06;;;;;;;15.52;7.80;;;;;;;;;;6307447;22;20420;-92
2022/10/26 07:27:33;;;;;;;21.15;8.57;;;;;;;;;;6307782;22;20015;-92
2022/10/26 07:29:59;;;;;;;23.58;8.23;;;;;;;;;;6307798;22;20037;-92
2022/10/26 07:32:25;;;;;;;18.65;7.70;;;;;;;;;;6307687;22;20007;-91
2022/10/26 07:35:00;;;;;;;16.25;7.18;;;;;;;;;;6308221;22;20007;-92
2022/10/26 07:37:26;;;;;;;26.63;8.32;;;;;;;;;;6308433;22;20014;-91
2022/10/26 07:39:53;;;;;;;21.38;7.45;;;;;;;;;;6307782;22;20412;-91
2022/10/26 07:42:19;;;;;;;19.25;7.95;;;;;;;;;;6307427;22;20046;-94
2022/10/26 07:44:45;;;;;;;21.13;7.60;;;;;;;;;;6307953;22;20076;-94
2022/10/26 07:47:11;;;;;;;17.85;7.18;;;;;;;;;;6307519;22;20009;-92
2022/10/26 07:49:37;;;;;;;20.70;7.88;;;;;;;;;;6308741;22;20003;-92
2022/10/26 07:52:03;;;;;;;19.20;7.80;;;;;;;;;;6307117;22;20000;-92
2022/10/26 07:54:29;;;;;;;25.67;8.82;;;;;;;;;;6309558;22;20011;-94
2022/10/26 07:56:55;;;;;;;23.38;7.85;;;;;;;;;;6307896;22;20374;-92
2022/10/26 07:59:21;;;;;;;19.50;7.93;;;;;;;;;;6308750;22;20010;-92
2022/10/26 08:01:48;;;;;;;24.38;8.45;;;;;;;;;;6307973;22;20015;-93
2022/10/26 08:04:14;;;;;;;18.63;7.63;;;;;;;;;;6309486;22;19999;-92
2022/10/26 08:06:43;;;;;;;32.85;8.30;;;;;;;;;;6307344;22;20019;-94
2022/10/26 08:09:09;;;;;;;17.23;8.82;;;;;;;;;;6308999;22;20134;-95
2022/10/26 08:11:36;;;;;;;23.92;8.98;;;;;;;;;;6308078;22;20011;-93
2022/10/26 08:14:02;;;;;;;18.05;7.78;;;;;;;;;;6302039;22;20089;-91
2022/10/26 08:16:28;;;;;;;17.13;7.53;;;;;;;;;;6312509;22;20006;-91
2022/10/26 08:18:55;;;;;;;20.45;7.13;;;;;;;;;;6313112;22;20007;-92
2022/10/26 08:21:21;;;;;;;36.67;14.27;;;;;;;;;;6313335;22;20076;-92
2022/10/26 08:23:47;;;;;;;22.13;7.57;;;;;;;;;;6312748;22;20344;-93
2022/10/26 08:26:13;;;;;;;29.42;9.13;;;;;;;;;;6313057;22;20355;-93
2022/10/26 08:28:39;;;;;;;17.50;8.15;;;;;;;;;;6313652;22;20007;-91
2022/10/26 08:31:06;;;;;;;21.02;7.28;;;;;;;;;;6313099;22;20003;-93
2022/10/26 08:33:32;;;;;;;22.73;7.90;;;;;;;;;;6312585;22;20086;-94
2022/10/26 08:36:00;;;;;;;17.40;8.98;;;;;;;;;;6313802;22;20052;-92
2022/10/26 08:38:26;;;;;;;35.10;8.25;;;;;;;;;;6312605;22;20032;-93
2022/10/26 08:40:53;;;;;;;17.92;8.50;;;;;;;;;;6313082;22;20140;-91
2022/10/26 08:43:26;;;;;;;21.55;9.32;;;;;;;;;;6312520;22;20061;-92
2022/10/26 08:45:55;;;;;;;19.48;9.68;;;;;;;;;;6313153;22;20324;-92
2022/10/26 08:48:23;;;;;;;20.05;9.80;;;;;;;;;;6312672;22;20038;-92
2022/10/26 08:50:54;;;;;;;18.70;8.32;;;;;;;;;;6312484;22;19999;-94
2022/10/26 08:53:23;;;;;;;17.55;9.38;;;;;;;;;;6313900;22;20411;-95
2022/10/26 08:55:55;;;;;;;23.38;8.30;;;;;;;;;;6314140;22;20049;-92
2022/10/26 08:58:23;;;;;;;15.15;7.80;;;;;;;;;;6315676;22;20022;-93
2022/10/26 09:00:50;;;;;;;16.77;8.32;;;;;;;;;;6314501;22;20086;-93
2022/10/26 09:03:17;;;;;;;16.27;8.40;;;;;;;;;;6314673;22;20427;-93
2022/10/26 09:05:55;;;;;;;18.02;8.77;;;;;;;;;;6314212;22;20003;-92
2022/10/26 09:08:31;;;;;;;17.00;8.27;;;;;;;;;;6314294;22;20038;-92
2022/10/26 09:11:06;;;;;;;16.95;7.97;;;;;;;;;;6314773;22;20018;-91
2022/10/26 09:13:49;;;;;;;15.18;8.07;;;;;;;;;;6314468;22;20439;-93
2022/10/26 09:16:15;;;;;;;;;;;;;;;;;;6314745;22;20003;-92
2022/10/26 09:19:01;;;;;;;15.40;7.65;;;;;;;;;;6314117;22;20021;-92
2022/10/26 09:21:40;;;;;;;13.52;7.75;;;;;;;;;;6313981;22;20011;-92
2022/10/26 09:24:25;;;;;;;18.70;8.55;;;;;;;;;;6314538;22;20038;-92
2022/10/26 09:26:58;;;;;;;16.42;8.02;;;;;;;;;;6315402;22;19999;-88
2022/10/26 09:29:49;;;;;;;13.50;7.38;;;;;;;;;;6313987;22;20085;-92
2022/10/26 09:32:25;;;;;;;15.30;8.00;;;;;;;;;;6314100;22;20003;-93
2022/10/26 09:34:57;;;;;;;16.77;8.88;;;;;;;;;;6313706;22;20454;-93
2022/10/26 09:37:29;;;;;;;21.05;9.57;;;;;;;;;;6315021;22;20003;-90
2022/10/26 09:40:15;;;;;;;19.65;9.57;;;;;;;;;;6313794;22;20081;-91
2022/10/26 09:42:51;;;;;;;18.52;9.70;;;;;;;;;;6313404;22;20014;-93
2022/10/26 09:45:32;;;;;;;21.60;10.07;;;;;;;;;;6314102;22;20045;-92
2022/10/26 09:48:00;;;;;;;20.17;8.48;;;;;;;;;;6313595;22;19999;-92
2022/10/26 09:50:34;;;;;;;18.00;9.32;;;;;;;;;;6314213;22;20025;-93
2022/10/26 09:53:03;;;;;;;19.02;9.48;;;;;;;;;;6313959;22;20003;-92
2022/10/26 09:55:31;;;;;;;19.27;9.50;;;;;;;;;;6313930;22;20010;-90
2022/10/26 09:58:01;;;;;;;20.08;9.43;;;;;;;;;;6313980;22;20003;-92
2022/10/26 10:00:28;;;;;;;22.35;10.30;;;;;;;;;;6313269;22;20082;-89
2022/10/26 10:02:56;;;;;;;22.48;9.82;;;;;;;;;;6313541;22;20435;-92
2022/10/26 10:05:28;;;;;;;22.85;10.65;;;;;;;;;;6313412;22;20332;-91
2022/10/26 10:08:24;;;;;;;21.15;10.27;;;;;;;;;;6313713;22;20083;-91
2022/10/26 10:10:56;;;;;;;20.50;9.27;;;;;;;;;;6276416;22;20432;-91
2022/10/26 10:13:23;;;;;;;22.23;8.93;;;;;;;;;;6308386;22;20562;-93
2022/10/26 10:15:53;;;;;;;17.63;9.43;;;;;;;;;;6310180;22;20035;-92
2022/10/26 10:18:23;;;;;;;19.27;9.55;;;;;;;;;;6308237;22;20003;-91
2022/10/26 10:20:57;;;;;;;17.38;9.20;;;;;;;;;;6308463;22;19999;-92
2022/10/26 10:23:28;;;;;;;25.83;10.60;;;;;;;;;;6308953;22;20018;-91
2022/10/26 10:26:01;;;;;;;25.38;10.02;;;;;;;;;;6308389;22;20003;-94
2022/10/26 10:28:28;;;;;;;22.40;9.35;;;;;;;;;;6308420;22;20003;-92
2022/10/26 10:30:58;;;;;;;20.10;9.45;;;;;;;;;;6307990;22;20044;-90
2022/10/26 10:33:31;;;;;;;18.35;8.10;;;;;;;;;;6308093;22;20003;-93
2022/10/26 10:35:58;;;;;;;18.05;9.15;;;;;;;;;;6308117;22;20007;-92
2022/10/26 10:38:27;;;;;;;19.88;8.57;;;;;;;;;;6308240;22;20045;-92
2022/10/26 10:40:55;;;;;;;20.13;8.48;;;;;;;;;;6308119;22;20374;-89
2022/10/26 10:43:22;;;;;;;22.98;9.25;;;;;;;;;;6308296;22;20049;-92
2022/10/26 10:45:49;;;;;;;18.33;8.48;;;;;;;;;;6308143;22;20000;-92
2022/10/26 10:48:24;;;;;;;19.08;9.25;;;;;;;;;;6308066;22;20007;-91
2022/10/26 10:50:52;;;;;;;23.73;9.10;;;;;;;;;;6308385;22;20003;-93
2022/10/26 10:53:23;;;;;;;20.98;9.13;;;;;;;;;;6308080;22;20003;-91
2022/10/26 10:55:57;;;;;;;20.33;10.18;;;;;;;;;;6308248;22;20042;-92
2022/10/26 10:58:36;;;;;;;23.77;8.82;;;;;;;;;;6307896;22;20003;-91
2022/10/26 11:01:02;;;;;;;21.25;9.80;;;;;;;;;;6308235;22;20500;-92
2022/10/26 11:03:41;;;;;;;21.10;9.43;;;;;;;;;;6307850;22;20144;-90
2022/10/26 11:06:16;;;;;;;21.38;9.60;;;;;;;;;;6308110;22;20069;-92
2022/10/26 11:08:47;;;;;;;22.83;9.95;;;;;;;;;;6308152;22;20054;-93
2022/10/26 11:11:22;;;;;;;22.17;10.02;;;;;;;;;;6313249;22;20022;-92
2022/10/26 11:13:51;;;;;;;20.70;9.13;;;;;;;;;;6312702;22;19998;-93
2022/10/26 11:16:23;;;;;;;22.00;9.65;;;;;;;;;;6313605;22;20036;-94
2022/10/26 11:18:57;;;;;;;21.92;10.25;;;;;;;;;;6313337;22;20025;-93
2022/10/26 11:21:36;;;;;;;19.92;9.52;;;;;;;;;;6313212;22;20013;-93
2022/10/26 11:24:05;;;;;;;20.55;9.25;;;;;;;;;;6312998;22;20021;-93
2022/10/26 11:26:38;;;;;;;25.65;9.55;;;;;;;;;;6312946;22;20018;-94
2022/10/26 11:29:07;;;;;;;20.08;9.02;;;;;;;;;;6312888;22;20007;-93
2022/10/26 11:31:37;;;;;;;21.05;8.90;;;;;;;;;;6313137;22;19998;-94
2022/10/26 11:34:09;;;;;;;17.17;8.45;;;;;;;;;;6312866;22;20085;-93
2022/10/26 11:36:39;;;;;;;20.23;9.40;;;;;;;;;;6312620;22;20003;-92
2022/10/26 11:39:24;;;;;;;19.00;8.75;;;;;;;;;;6312727;22;20427;-94
2022/10/26 11:42:11;;;;;;;22.92;10.85;;;;;;;;;;6345980;22;20428;-93
2022/10/26 11:44:40;;;;;;;22.52;10.15;;;;;;;;;;6312315;22;20007;-92
2022/10/26 11:47:22;;;;;;;26.10;10.90;;;;;;;;;;6313426;22;20003;-91
2022/10/26 11:50:06;;;;;;;26.63;12.07;;;;;;;;;;6312579;22;20060;-91
2022/10/26 11:52:36;;;;;;;28.42;11.65;;;;;;;;;;6313216;22;20007;-90
2022/10/26 11:55:03;;;;;;;40.72;12.45;;;;;;;;;;6312563;22;20028;-91
2022/10/26 11:57:34;;;;;;;25.88;12.38;;;;;;;;;;6312637;22;20006;-92
2022/10/26 12:00:05;;;;;;;33.92;13.15;;;;;;;;;;6312504;22;20006;-92
2022/10/26 12:13:48;;;;;;;29.30;11.60;;;;;;;;;;6281288;22;20069;-94
2022/10/26 12:16:27;;;;;;;32.25;12.85;;;;;;;;;;6305675;22;20033;-96
2022/10/26 12:18:57;;;;;;;31.63;13.52;;;;;;;;;;6321848;22;19999;-95
2022/10/26 12:21:26;;;;;;;27.02;12.82;;;;;;;;;;6313404;22;20022;-94
2022/10/26 12:24:05;;;;;;;31.00;12.73;;;;;;;;;;6314147;22;20366;-96
2022/10/26 12:26:35;;;;;;;27.63;11.98;;;;;;;;;;6313347;22;20003;-93
2022/10/26 12:29:01;;;;;;;26.17;12.27;;;;;;;;;;6316149;22;20081;-93
2022/10/26 12:31:36;;;;;;;27.30;13.43;;;;;;;;;;6315916;22;20047;-93
2022/10/26 12:34:15;;;;;;;30.63;13.40;;;;;;;;;;6315636;22;20009;-95
2022/10/26 12:36:57;;;;;;;28.67;13.23;;;;;;;;;;6315482;22;20435;-94
2022/10/26 12:39:33;;;;;;;26.15;12.77;;;;;;;;;;6315103;22;20010;-93
2022/10/26 12:42:05;;;;;;;22.83;11.98;;;;;;;;;;6316000;22;20556;-95
2022/10/26 12:44:47;;;;;;;22.33;12.75;;;;;;;;;;6315769;22;20034;-93
2022/10/26 12:47:31;;;;;;;31.48;14.32;;;;;;;;;;6316015;22;20078;-94
2022/10/26 12:50:06;;;;;;;26.80;12.55;;;;;;;;;;6317091;22;20003;-96
2022/10/26 12:52:44;;;;;;;25.75;13.40;;;;;;;;;;6316153;22;20438;-96
2022/10/26 12:55:26;;;;;;;28.27;14.45;;;;;;;;;;6316067;22;19999;-95
2022/10/26 12:57:52;;;;;;;26.50;13.00;;;;;;;;;;6315564;22;20416;-95
2022/10/26 13:00:22;;;;;;;24.42;13.10;;;;;;;;;;6316024;22;20035;-94
2022/10/26 13:03:25;;;;;;;23.23;12.27;;;;;;;;;;6316125;22;20015;-96
2022/10/26 13:06:16;;;;;;;28.20;12.20;;;;;;;;;;6315346;22;20003;-94
2022/10/26 13:08:44;;;;;;;21.23;11.02;;;;;;;;;;6315235;22;20245;-93
2022/10/26 13:11:31;;;;;;;23.25;12.18;;;;;;;;;;6315349;22;20010;-96
2022/10/26 13:14:01;;;;;;;24.83;12.40;;;;;;;;;;6314827;22;20015;-96
2022/10/26 13:16:27;;;;;;;26.42;11.77;;;;;;;;;;6316534;22;20021;-92
2022/10/26 13:18:54;;;;;;;21.38;11.48;;;;;;;;;;6314120;22;20390;-95
2022/10/26 13:21:22;;;;;;;24.10;12.27;;;;;;;;;;6314451;22;20003;-90
2022/10/26 13:24:00;;;;;;;23.75;11.38;;;;;;;;;;6314515;22;20430;-95
2022/10/26 13:26:27;;;;;;;20.65;12.00;;;;;;;;;;6314058;22;20002;-91
2022/10/26 13:28:55;;;;;;;26.58;13.57;;;;;;;;;;6313759;22;20428;-90
2022/10/26 13:31:30;;;;;;;27.02;13.48;;;;;;;;;;6313735;22;20002;-90
2022/10/26 13:34:02;;;;;;;23.58;12.07;;;;;;;;;;6313845;22;20006;-90
2022/10/26 13:36:28;;;;;;;20.83;12.05;;;;;;;;;;6313869;22;20086;-96
2022/10/26 13:38:55;;;;;;;23.48;12.20;;;;;;;;;;6314175;22;20108;-90
2022/10/26 13:41:33;;;;;;;24.70;12.63;;;;;;;;;;6315223;22;20010;-91
2022/10/26 13:44:02;;;;;;;24.02;12.20;;;;;;;;;;6314583;22;20014;-91
2022/10/26 13:46:28;;;;;;;26.33;12.95;;;;;;;;;;6314565;22;20094;-94
2022/10/26 13:48:58;;;;;;;22.50;12.10;;;;;;;;;;6315045;22;20014;-95
2022/10/26 13:51:30;;;;;;;22.38;12.02;;;;;;;;;;6315606;22;20041;-93
2022/10/26 13:54:02;;;;;;;23.10;11.75;;;;;;;;;;6315231;22;20053;-91
2022/10/26 13:56:42;;;;;;;21.05;11.60;;;;;;;;;;6314550;22;19998;-94
2022/10/26 13:59:15;;;;;;;22.42;11.82;;;;;;;;;;6314423;22;20003;-95
2022/10/26 14:01:41;;;;;;;24.10;11.95;;;;;;;;;;6314908;22;19999;-95
2022/10/26 14:04:25;;;;;;;24.17;12.00;;;;;;;;;;6314590;22;20007;-95
2022/10/26 14:06:52;;;;;;;19.98;12.68;;;;;;;;;;6314865;22;20006;-96
2022/10/26 14:09:19;;;;;;;27.20;15.57;;;;;;;;;;6314587;22;20003;-94
2022/10/26 14:11:53;;;;;;;23.98;14.13;;;;;;;;;;6314862;22;20373;-94
2022/10/26 14:14:24;;;;;;;22.33;12.13;;;;;;;;;;6314366;22;20351;-95
2022/10/26 14:16:51;;;;;;;22.77;11.57;;;;;;;;;;6314576;22;20395;-96
2022/10/26 14:19:21;;;;;;;23.95;12.30;;;;;;;;;;6314303;22;20316;-94
2022/10/26 14:21:49;;;;;;;23.40;12.00;;;;;;;;;;6314311;22;20433;-91
2022/10/26 14:24:36;;;;;;;21.77;10.57;;;;;;;;;;6317282;22;20011;-93
2022/10/26 14:27:03;;;;;;;22.27;11.52;;;;;;;;;;6323670;22;20010;-89
2022/10/26 14:29:33;;;;;;;22.92;11.38;;;;;;;;;;6317987;22;20037;-92
2022/10/26 14:31:59;;;;;;;21.42;11.32;;;;;;;;;;6315256;22;19999;-90
2022/10/26 14:34:25;;;;;;;22.05;11.68;;;;;;;;;;6314636;22;20118;-95
2022/10/26 14:36:57;;;;;;;23.75;11.60;;;;;;;;;;6314141;22;19999;-90
2022/10/26 14:39:31;;;;;;;24.25;11.40;;;;;;;;;;6314077;22;20353;-92
2022/10/26 14:41:58;;;;;;;24.27;12.10;;;;;;;;;;6316165;22;20002;-90
2022/10/26 14:44:25;;;;;;;23.05;12.55;;;;;;;;;;6323720;22;20045;-92
2022/10/26 14:46:53;;;;;;;23.52;11.70;;;;;;;;;;6319040;22;19999;-92
2022/10/26 14:49:20;;;;;;;20.55;11.38;;;;;;;;;;6313865;22;20013;-95
2022/10/26 14:51:47;;;;;;;23.20;12.45;;;;;;;;;;6313918;22;20088;-93
2022/10/26 14:54:20;;;;;;;26.90;13.90;;;;;;;;;;6313809;22;20003;-95
2022/10/26 14:56:46;;;;;;;;;;;;;;;;;;6314477;22;19999;-95
2022/10/26 14:59:29;;;;;;;25.73;11.63;;;;;;;;;;6314112;22;19963;-93
2022/10/26 15:02:20;;;;;;;32.90;14.05;;;;;;;;;;6313574;22;19986;-96
2022/10/26 15:05:00;;;;;;;27.35;12.05;;;;;;;;;;6314070;22;20494;-92
2022/10/26 15:07:34;;;;;;;26.30;11.85;;;;;;;;;;6313836;22;20007;-96
2022/10/26 15:10:00;;;;;;;32.03;14.07;;;;;;;;;;6313634;22;19995;-91
2022/10/26 15:12:34;;;;;;;24.10;11.02;;;;;;;;;;6312902;22;20014;-91
2022/10/26 15:15:09;;;;;;;28.88;12.27;;;;;;;;;;6313327;22;20082;-94
2022/10/26 15:17:40;;;;;;;29.27;12.48;;;;;;;;;;6313725;22;19999;-96
2022/10/26 15:20:11;;;;;;;28.85;13.13;;;;;;;;;;6315977;22;20003;-95
2022/10/26 15:22:40;;;;;;;26.98;13.25;;;;;;;;;;6320121;22;20066;-95
2022/10/26 15:25:06;;;;;;;25.90;12.65;;;;;;;;;;6321023;22;20424;-95
2022/10/26 15:27:33;;;;;;;26.10;12.88;;;;;;;;;;6314765;22;20007;-91
2022/10/26 15:30:12;;;;;;;26.40;12.55;;;;;;;;;;6313655;22;20003;-94
2022/10/26 15:32:39;;;;;;;22.42;11.18;;;;;;;;;;6313718;22;20082;-94
2022/10/26 15:35:15;;;;;;;26.30;11.57;;;;;;;;;;6313564;22;20027;-94
2022/10/26 15:40:59;;;;;;;29.23;12.73;;;;;;;;;;6345730;22;20052;-96
2022/10/26 15:43:26;;;;;;;21.35;10.10;;;;;;;;;;6322758;22;20018;-91
2022/10/26 15:45:53;;;;;;;21.90;11.00;;;;;;;;;;6313975;22;20003;-93
2022/10/26 15:48:25;;;;;;;24.83;11.38;;;;;;;;;;6317855;22;20003;-92
2022/10/26 15:50:52;;;;;;;27.17;12.40;;;;;;;;;;6311210;22;20003;-92
2022/10/26 15:53:22;;;;;;;26.45;11.65;;;;;;;;;;6315430;22;20003;-92
2022/10/26 15:56:15;;;;;;;26.55;11.50;;;;;;;;;;6315382;22;20449;-90
2022/10/26 15:58:42;;;;;;;28.65;14.68;;;;;;;;;;6258854;22;20030;-96
2022/10/26 16:04:24;;;;;;;28.50;11.57;;;;;;;;;;6345305;22;20094;-96
2022/10/26 16:13:06;;;;;;;27.25;12.07;;;;;;;;;;6261630;22;20003;-93
2022/10/26 16:15:45;;;;;;;29.02;11.80;;;;;;;;;;6272191;22;20162;-94
2022/10/26 16:18:11;;;;;;;30.73;13.75;;;;;;;;;;6251148;22;20034;-91
2022/10/26 16:20:38;;;;;;;35.33;15.88;;;;;;;;;;6251491;22;20000;-92
2022/10/26 16:23:17;;;;;;;31.92;13.10;;;;;;;;;;6251834;22;20420;-95
2022/10/26 16:25:46;;;;;;;33.30;14.93;;;;;;;;;;6251577;22;20000;-94
2022/10/26 16:28:16;;;;;;;32.42;14.23;;;;;;;;;;6251623;22;20079;-93
2022/10/26 16:30:43;;;;;;;35.22;15.52;;;;;;;;;;6250719;22;20003;-90
2022/10/26 16:33:10;;;;;;;26.55;13.20;;;;;;;;;;6250872;22;20337;-90
2022/10/26 16:35:36;;;;;;;30.55;14.15;;;;;;;;;;6250875;22;20004;-91
2022/10/26 16:38:09;;;;;;;22.92;11.35;;;;;;;;;;6259002;22;20360;-94
2022/10/26 16:40:35;;;;;;;28.65;12.63;;;;;;;;;;6252582;22;20004;-95
2022/10/26 16:43:02;;;;;;;26.02;14.02;;;;;;;;;;6251120;22;20011;-95
2022/10/26 16:45:28;;;;;;;33.65;15.45;;;;;;;;;;6253267;22;20004;-93
2022/10/26 16:50:33;;;;;;;44.60;16.40;;;;;;;;;;6339667;22;20410;-96
2022/10/26 16:56:18;;;;;;;46.10;17.27;;;;;;;;;;6347173;22;20018;-89
2022/10/26 16:58:58;;;;;;;43.35;16.95;;;;;;;;;;6320880;22;20015;-92
2022/10/26 17:01:24;;;;;;;39.55;17.40;;;;;;;;;;6306747;22;20020;-89
2022/10/26 17:04:22;;;;;;;48.22;17.02;;;;;;;;;;6310547;22;20055;-90
2022/10/26 17:07:11;;;;;;;39.47;15.32;;;;;;;;;;6306284;22;20006;-96
2022/10/26 17:09:40;;;;;;;36.20;14.35;;;;;;;;;;6311009;22;20017;-95
2022/10/26 17:12:07;;;;;;;36.90;14.82;;;;;;;;;;6309750;22;20003;-90
2022/10/26 17:14:44;;;;;;;37.03;14.88;;;;;;;;;;6313562;22;19999;-89
2022/10/26 17:17:23;;;;;;;38.50;14.98;;;;;;;;;;6314121;22;20007;-88
2022/10/26 17:23:16;;;;;;;37.88;15.77;;;;;;;;;;6315659;22;20027;-91
2022/10/26 17:25:51;;;;;;;35.47;14.48;;;;;;;;;;6318808;22;20000;-95
2022/10/26 17:28:19;;;;;;;34.95;13.98;;;;;;;;;;6318265;22;19995;-92
2022/10/26 17:36:43;;;;;;;29.23;13.27;;;;;;;;;;6346089;22;20090;-96
2022/10/26 17:42:12;;;;;;;26.10;13.00;;;;;;;;;;6343214;22;20013;-91
2022/10/26 17:47:14;;;;;;;28.37;12.50;;;;;;;;;;6352560;22;20019;-96
2022/10/26 17:49:40;;;;;;;30.80;13.88;;;;;;;;;;6321685;22;20387;-92
2022/10/26 17:52:06;;;;;;;30.90;13.90;;;;;;;;;;6307930;22;20020;-90
2022/10/26 17:54:32;;;;;;;26.45;13.15;;;;;;;;;;6330381;22;20006;-92
2022/10/26 17:57:02;;;;;;;25.38;12.13;;;;;;;;;;6324684;22;20003;-96
2022/10/26 17:59:28;;;;;;;32.63;13.52;;;;;;;;;;6314789;22;20003;-93
2022/10/26 18:01:54;;;;;;;26.48;12.93;;;;;;;;;;6313907;22;20006;-94
2022/10/26 18:04:25;;;;;;;43.50;17.88;;;;;;;;;;6314845;22;20002;-96
2022/10/26 18:06:54;;;;;;;32.58;14.63;;;;;;;;;;6319535;22;20009;-96
2022/10/26 18:09:20;;;;;;;33.05;14.85;;;;;;;;;;6315089;22;20035;-96
2022/10/26 18:12:05;;;;;;;31.60;14.77;;;;;;;;;;6317342;22;19998;-94